CFE7LJ EGLC-EDDF
Flight info
| Callsign | CFE7LJ |
|---|---|
| Flight time | N/A |
| Altitude | 37000 |
| Route | SOQQA M87 UMTUM UL9 KONAN UL607 SPI T180 NIVNU T847 IMCOM IMCOM1A |
| Aircraft | E190/M-SDE3GILORVW/S |
Departure
| Time | 2026-05-05 20:20 |
|---|---|
| Airport | London City Airport (EGLC) |
Arrival
| Time | N/A |
|---|---|
| Airport | Frankfurt Main Airport (EDDF) |
| Time | Latitude | Longitude | Altitude | Speed | Heading |
|---|---|---|---|---|---|
| 2026-05-05 19:44 | 51.50402 | 0.05423 | 24 ft | 0 kts | 323° |
| 2026-05-05 20:16 | 51.50403 | 0.05422 | 24 ft | 1 kts | 323° |
| 2026-05-05 20:16 | 51.50416 | 0.05406 | 25 ft | 4 kts | 323° |
| 2026-05-05 20:17 | 51.50440 | 0.05363 | 24 ft | 6 kts | 291° |
| 2026-05-05 20:17 | 51.50445 | 0.05272 | 24 ft | 10 kts | 275° |
| 2026-05-05 20:17 | 51.50449 | 0.05149 | 24 ft | 13 kts | 270° |
| 2026-05-05 20:17 | 51.50459 | 0.04991 | 24 ft | 16 kts | 273° |
| 2026-05-05 20:18 | 51.50466 | 0.04802 | 24 ft | 18 kts | 273° |
| 2026-05-05 20:18 | 51.50474 | 0.04584 | 24 ft | 15 kts | 273° |
| 2026-05-05 20:18 | 51.50487 | 0.04465 | 24 ft | 5 kts | 296° |
| 2026-05-05 20:18 | 51.50493 | 0.04455 | 26 ft | 2 kts | 313° |
| 2026-05-05 20:19 | 51.50516 | 0.04445 | 24 ft | 5 kts | 358° |
| 2026-05-05 20:19 | 51.50550 | 0.04477 | 26 ft | 7 kts | 64° |
| 2026-05-05 20:19 | 51.50553 | 0.04514 | 24 ft | 0 kts | 88° |
| 2026-05-05 20:19 | 51.50553 | 0.04515 | 24 ft | 1 kts | 88° |
| 2026-05-05 20:20 | 51.50548 | 0.04820 | 24 ft | 63 kts | 92° |
| 2026-05-05 20:20 | 51.50512 | 0.05905 | 25 ft | 129 kts | 93° |
| 2026-05-05 20:20 | 51.50432 | 0.07511 | 416 ft | 155 kts | 96° |
| 2026-05-05 20:20 | 51.50393 | 0.09339 | 846 ft | 169 kts | 89° |
| 2026-05-05 20:21 | 51.50430 | 0.11299 | 1519 ft | 173 kts | 88° |
| 2026-05-05 20:21 | 51.50296 | 0.13196 | 2349 ft | 176 kts | 104° |
| 2026-05-05 20:21 | 51.49755 | 0.15092 | 2691 ft | 201 kts | 115° |
| 2026-05-05 20:21 | 51.49128 | 0.17175 | 3243 ft | 210 kts | 109° |
| 2026-05-05 20:22 | 51.48626 | 0.19429 | 3895 ft | 218 kts | 104° |
| 2026-05-05 20:22 | 51.48172 | 0.21858 | 4311 ft | 242 kts | 103° |
| 2026-05-05 20:22 | 51.47683 | 0.24593 | 4712 ft | 265 kts | 103° |
| 2026-05-05 20:22 | 51.47160 | 0.27485 | 5437 ft | 272 kts | 104° |
| 2026-05-05 20:23 | 51.46632 | 0.30378 | 6271 ft | 274 kts | 104° |
| 2026-05-05 20:23 | 51.46093 | 0.33332 | 7066 ft | 276 kts | 104° |
| 2026-05-05 20:23 | 51.45549 | 0.36299 | 7807 ft | 279 kts | 104° |
| 2026-05-05 20:23 | 51.44996 | 0.39313 | 8548 ft | 283 kts | 104° |
| 2026-05-05 20:24 | 51.44435 | 0.42373 | 9311 ft | 287 kts | 104° |
| 2026-05-05 20:24 | 51.43863 | 0.45479 | 10099 ft | 291 kts | 105° |
| 2026-05-05 20:24 | 51.43272 | 0.48694 | 10503 ft | 310 kts | 105° |
| 2026-05-05 20:24 | 51.42653 | 0.52043 | 11003 ft | 322 kts | 105° |
| 2026-05-05 20:25 | 51.42010 | 0.55515 | 11771 ft | 326 kts | 105° |
| 2026-05-05 20:25 | 51.41357 | 0.59026 | 12619 ft | 329 kts | 105° |
| 2026-05-05 20:25 | 51.40616 | 0.62521 | 13464 ft | 334 kts | 115° |
| 2026-05-05 20:25 | 51.39313 | 0.65639 | 14282 ft | 338 kts | 128° |
| 2026-05-05 20:26 | 51.37837 | 0.68518 | 15114 ft | 340 kts | 129° |
| 2026-05-05 20:26 | 51.36319 | 0.71441 | 15941 ft | 343 kts | 129° |
| 2026-05-05 20:26 | 51.34799 | 0.74408 | 16724 ft | 347 kts | 128° |
| 2026-05-05 20:26 | 51.33267 | 0.77415 | 17520 ft | 350 kts | 128° |
| 2026-05-05 20:27 | 51.32220 | 0.79469 | 18071 ft | 352 kts | 128° |
| 2026-05-05 20:27 | 51.30682 | 0.82485 | 18757 ft | 356 kts | 128° |
| 2026-05-05 20:27 | 51.29106 | 0.85570 | 19434 ft | 360 kts | 129° |
| 2026-05-05 20:27 | 51.27507 | 0.88692 | 20052 ft | 365 kts | 129° |
| 2026-05-05 20:28 | 51.25886 | 0.91846 | 20652 ft | 368 kts | 129° |
| 2026-05-05 20:28 | 51.24252 | 0.95021 | 21237 ft | 372 kts | 129° |
| 2026-05-05 20:28 | 51.22596 | 0.98230 | 21832 ft | 375 kts | 129° |
| 2026-05-05 20:28 | 51.21059 | 1.01610 | 22366 ft | 379 kts | 117° |
| 2026-05-05 20:29 | 51.20216 | 1.05538 | 22948 ft | 380 kts | 102° |
| 2026-05-05 20:29 | 51.19653 | 1.09703 | 23520 ft | 384 kts | 101° |
| 2026-05-05 20:29 | 51.19114 | 1.13905 | 24050 ft | 387 kts | 101° |
| 2026-05-05 20:29 | 51.18565 | 1.18130 | 24604 ft | 390 kts | 102° |
| 2026-05-05 20:30 | 51.18008 | 1.22383 | 25144 ft | 393 kts | 102° |
| 2026-05-05 20:30 | 51.17448 | 1.26649 | 25685 ft | 395 kts | 102° |
| 2026-05-05 20:30 | 51.16885 | 1.30946 | 26188 ft | 398 kts | 102° |
| 2026-05-05 20:30 | 51.16331 | 1.35231 | 26663 ft | 400 kts | 101° |
| 2026-05-05 20:31 | 51.15996 | 1.39654 | 27117 ft | 403 kts | 96° |
| 2026-05-05 20:31 | 51.15795 | 1.44141 | 27568 ft | 406 kts | 95° |
| 2026-05-05 20:31 | 51.15610 | 1.48657 | 28006 ft | 409 kts | 95° |
| 2026-05-05 20:31 | 51.15407 | 1.53180 | 28443 ft | 411 kts | 95° |
| 2026-05-05 20:32 | 51.15192 | 1.57734 | 28855 ft | 413 kts | 96° |
| 2026-05-05 20:32 | 51.14970 | 1.62309 | 29381 ft | 413 kts | 96° |
| 2026-05-05 20:32 | 51.14746 | 1.66884 | 29807 ft | 415 kts | 96° |
| 2026-05-05 20:32 | 51.14521 | 1.71429 | 30153 ft | 418 kts | 96° |
| 2026-05-05 20:33 | 51.14289 | 1.76044 | 30567 ft | 417 kts | 97° |
| 2026-05-05 20:33 | 51.14056 | 1.80662 | 30845 ft | 419 kts | 97° |
| 2026-05-05 20:33 | 51.13822 | 1.85239 | 31192 ft | 419 kts | 97° |
| 2026-05-05 20:33 | 51.13584 | 1.89872 | 31432 ft | 422 kts | 97° |
| 2026-05-05 20:34 | 51.13342 | 1.94566 | 31682 ft | 424 kts | 97° |
| 2026-05-05 20:34 | 51.13102 | 1.99230 | 32059 ft | 422 kts | 97° |
| 2026-05-05 20:34 | 51.12856 | 2.03885 | 32437 ft | 420 kts | 97° |
| 2026-05-05 20:34 | 51.12610 | 2.08510 | 32816 ft | 418 kts | 97° |
| 2026-05-05 20:35 | 51.12367 | 2.13070 | 33166 ft | 417 kts | 97° |
| 2026-05-05 20:35 | 51.12119 | 2.17681 | 33489 ft | 417 kts | 98° |
| 2026-05-05 20:35 | 51.11870 | 2.22278 | 33822 ft | 416 kts | 98° |
| 2026-05-05 20:35 | 51.11620 | 2.26855 | 34108 ft | 415 kts | 98° |
| 2026-05-05 20:36 | 51.11367 | 2.31455 | 34317 ft | 417 kts | 98° |
| 2026-05-05 20:36 | 51.11114 | 2.36009 | 34543 ft | 418 kts | 98° |
| 2026-05-05 20:36 | 51.10856 | 2.40639 | 34771 ft | 419 kts | 98° |
| 2026-05-05 20:36 | 51.10596 | 2.45266 | 34996 ft | 419 kts | 98° |
| 2026-05-05 20:37 | 51.10337 | 2.49850 | 35195 ft | 421 kts | 98° |
| 2026-05-05 20:37 | 51.10072 | 2.54510 | 35420 ft | 422 kts | 98° |
| 2026-05-05 20:37 | 51.09804 | 2.59169 | 35628 ft | 422 kts | 98° |
| 2026-05-05 20:37 | 51.09523 | 2.63833 | 35841 ft | 423 kts | 101° |
| 2026-05-05 20:38 | 51.08908 | 2.68346 | 36019 ft | 421 kts | 107° |
| 2026-05-05 20:38 | 51.08118 | 2.72825 | 36226 ft | 421 kts | 109° |
| 2026-05-05 20:38 | 51.07294 | 2.77287 | 36416 ft | 422 kts | 109° |
| 2026-05-05 20:38 | 51.06466 | 2.81783 | 36600 ft | 423 kts | 108° |
| 2026-05-05 20:39 | 51.05643 | 2.86291 | 36794 ft | 424 kts | 108° |
| 2026-05-05 20:39 | 51.04827 | 2.90765 | 37096 ft | 421 kts | 108° |
| 2026-05-05 20:39 | 51.04001 | 2.95286 | 37052 ft | 428 kts | 108° |
| 2026-05-05 20:40 | 51.02318 | 3.04490 | 36925 ft | 441 kts | 108° |
| 2026-05-05 20:40 | 51.00598 | 3.13865 | 36938 ft | 448 kts | 108° |
| 2026-05-05 20:41 | 50.98843 | 3.23382 | 36932 ft | 449 kts | 108° |
| 2026-05-05 20:41 | 50.97078 | 3.32891 | 36924 ft | 449 kts | 108° |
| 2026-05-05 20:42 | 50.95304 | 3.42402 | 36919 ft | 449 kts | 108° |
| 2026-05-05 20:42 | 50.93527 | 3.51885 | 36917 ft | 449 kts | 108° |
| 2026-05-05 20:43 | 50.91737 | 3.61386 | 36914 ft | 449 kts | 109° |
| 2026-05-05 20:43 | 50.89939 | 3.70794 | 36910 ft | 448 kts | 109° |
| 2026-05-05 20:44 | 50.88107 | 3.80244 | 36915 ft | 448 kts | 109° |
| 2026-05-05 20:44 | 50.86271 | 3.89689 | 36914 ft | 448 kts | 109° |
| 2026-05-05 20:45 | 50.83517 | 4.03775 | 36917 ft | 448 kts | 109° |
| 2026-05-05 20:45 | 50.81666 | 4.13191 | 36915 ft | 448 kts | 109° |
| 2026-05-05 20:46 | 50.79807 | 4.22598 | 36913 ft | 448 kts | 109° |
| 2026-05-05 20:46 | 50.77939 | 4.32005 | 36920 ft | 448 kts | 109° |
| 2026-05-05 20:47 | 50.76064 | 4.41406 | 36908 ft | 447 kts | 109° |
| 2026-05-05 20:47 | 50.74188 | 4.50763 | 36917 ft | 447 kts | 110° |
| 2026-05-05 20:48 | 50.72314 | 4.60067 | 36911 ft | 448 kts | 110° |
| 2026-05-05 20:48 | 50.70481 | 4.69453 | 36943 ft | 446 kts | 109° |
| 2026-05-05 20:49 | 50.68669 | 4.78845 | 36896 ft | 446 kts | 109° |
| 2026-05-05 20:49 | 50.66848 | 4.88193 | 36894 ft | 445 kts | 109° |
| 2026-05-05 20:50 | 50.64998 | 4.97461 | 36903 ft | 445 kts | 110° |
| 2026-05-05 20:50 | 50.63080 | 5.06738 | 36890 ft | 445 kts | 110° |
| 2026-05-05 20:51 | 50.61163 | 5.16012 | 36888 ft | 445 kts | 110° |
| 2026-05-05 20:51 | 50.59243 | 5.25277 | 36887 ft | 445 kts | 110° |
| 2026-05-05 20:52 | 50.57328 | 5.34476 | 36893 ft | 445 kts | 110° |
| 2026-05-05 20:52 | 50.55393 | 5.43728 | 36892 ft | 444 kts | 110° |
| 2026-05-05 20:53 | 50.53451 | 5.52975 | 36896 ft | 444 kts | 110° |
| 2026-05-05 20:53 | 50.51514 | 5.62156 | 36886 ft | 444 kts | 110° |
| 2026-05-05 20:54 | 50.49720 | 5.71474 | 36871 ft | 446 kts | 108° |
| 2026-05-05 20:54 | 50.48009 | 5.80814 | 36737 ft | 444 kts | 108° |
| 2026-05-05 20:55 | 50.47157 | 5.85375 | 36377 ft | 433 kts | 108° |
| 2026-05-05 20:55 | 50.46317 | 5.89847 | 35942 ft | 425 kts | 109° |
| 2026-05-05 20:55 | 50.45478 | 5.94288 | 35362 ft | 419 kts | 109° |
| 2026-05-05 20:55 | 50.44649 | 5.98663 | 34766 ft | 414 kts | 109° |
| 2026-05-05 20:56 | 50.43832 | 6.02962 | 34246 ft | 407 kts | 109° |
| 2026-05-05 20:56 | 50.43027 | 6.07191 | 33650 ft | 402 kts | 109° |
| 2026-05-05 20:56 | 50.42243 | 6.11296 | 33178 ft | 394 kts | 109° |
| 2026-05-05 20:56 | 50.41453 | 6.15425 | 32633 ft | 397 kts | 108° |
| 2026-05-05 20:57 | 50.40650 | 6.19608 | 32113 ft | 404 kts | 108° |
| 2026-05-05 20:57 | 50.39833 | 6.23860 | 31555 ft | 409 kts | 108° |
| 2026-05-05 20:57 | 50.39005 | 6.28164 | 30995 ft | 412 kts | 108° |
| 2026-05-05 20:57 | 50.38185 | 6.32417 | 30472 ft | 413 kts | 108° |
| 2026-05-05 20:58 | 50.37350 | 6.36739 | 29902 ft | 415 kts | 108° |
| 2026-05-05 20:58 | 50.36523 | 6.41080 | 29347 ft | 415 kts | 108° |
| 2026-05-05 20:58 | 50.35846 | 6.45488 | 28814 ft | 420 kts | 98° |
| 2026-05-05 20:58 | 50.35642 | 6.50077 | 28249 ft | 423 kts | 94° |
| 2026-05-05 20:59 | 50.35492 | 6.54675 | 27693 ft | 420 kts | 95° |
| 2026-05-05 20:59 | 50.35275 | 6.59220 | 27123 ft | 418 kts | 96° |
| 2026-05-05 20:59 | 50.35017 | 6.63737 | 26585 ft | 415 kts | 97° |
| 2026-05-05 20:59 | 50.34740 | 6.68234 | 26020 ft | 413 kts | 97° |
| 2026-05-05 21:00 | 50.34456 | 6.72701 | 25466 ft | 410 kts | 97° |
| 2026-05-05 21:00 | 50.34174 | 6.77072 | 24954 ft | 408 kts | 97° |
| 2026-05-05 21:00 | 50.33899 | 6.81489 | 24406 ft | 407 kts | 97° |
| 2026-05-05 21:00 | 50.33619 | 6.85903 | 23853 ft | 406 kts | 99° |
| 2026-05-05 21:01 | 50.32903 | 6.90141 | 23277 ft | 402 kts | 115° |
| 2026-05-05 21:01 | 50.31641 | 6.94013 | 22703 ft | 397 kts | 120° |
| 2026-05-05 21:01 | 50.30293 | 6.97805 | 22112 ft | 395 kts | 120° |
| 2026-05-05 21:01 | 50.28986 | 7.01491 | 21579 ft | 392 kts | 120° |
| 2026-05-05 21:02 | 50.27785 | 7.05311 | 21046 ft | 390 kts | 116° |
| 2026-05-05 21:02 | 50.26680 | 7.09184 | 20526 ft | 388 kts | 115° |
| 2026-05-05 21:02 | 50.25572 | 7.13013 | 20019 ft | 386 kts | 116° |
| 2026-05-05 21:02 | 50.24464 | 7.16782 | 19514 ft | 384 kts | 116° |
| 2026-05-05 21:03 | 50.23340 | 7.20558 | 19008 ft | 382 kts | 116° |
| 2026-05-05 21:03 | 50.22204 | 7.24356 | 18488 ft | 380 kts | 117° |
| 2026-05-05 21:03 | 50.21099 | 7.28032 | 17978 ft | 378 kts | 117° |
| 2026-05-05 21:03 | 50.19985 | 7.31735 | 17490 ft | 375 kts | 117° |
| 2026-05-05 21:04 | 50.18905 | 7.35437 | 16966 ft | 375 kts | 114° |
| 2026-05-05 21:04 | 50.18008 | 7.39241 | 16472 ft | 373 kts | 111° |
| 2026-05-05 21:04 | 50.17250 | 7.43106 | 15977 ft | 373 kts | 102° |
| 2026-05-05 21:04 | 50.17134 | 7.47146 | 15507 ft | 373 kts | 89° |
| 2026-05-05 21:05 | 50.17263 | 7.51191 | 15151 ft | 371 kts | 88° |
| 2026-05-05 21:05 | 50.17395 | 7.55216 | 14686 ft | 372 kts | 88° |
| 2026-05-05 21:05 | 50.17521 | 7.59180 | 14133 ft | 358 kts | 88° |
| 2026-05-05 21:05 | 50.17638 | 7.62963 | 13437 ft | 349 kts | 88° |
| 2026-05-05 21:06 | 50.17750 | 7.66712 | 12871 ft | 337 kts | 88° |
| 2026-05-05 21:06 | 50.17859 | 7.70320 | 12358 ft | 330 kts | 88° |
| 2026-05-05 21:06 | 50.17968 | 7.73878 | 11870 ft | 326 kts | 88° |
| 2026-05-05 21:06 | 50.18311 | 7.77356 | 11368 ft | 325 kts | 75° |
| 2026-05-05 21:07 | 50.18953 | 7.80684 | 10887 ft | 322 kts | 73° |
| 2026-05-05 21:07 | 50.19420 | 7.84133 | 10397 ft | 320 kts | 83° |
| 2026-05-05 21:07 | 50.19710 | 7.87516 | 9939 ft | 318 kts | 83° |
| 2026-05-05 21:07 | 50.20004 | 7.90934 | 9454 ft | 316 kts | 83° |
| 2026-05-05 21:08 | 50.20288 | 7.94266 | 8928 ft | 302 kts | 83° |
| 2026-05-05 21:08 | 50.20562 | 7.97444 | 8967 ft | 289 kts | 83° |
| 2026-05-05 21:08 | 50.20825 | 8.00506 | 9895 ft | 270 kts | 83° |
| 2026-05-05 21:08 | 50.21063 | 8.03231 | 11378 ft | 241 kts | 83° |
| 2026-05-05 21:09 | 50.21280 | 8.05730 | 12509 ft | 224 kts | 83° |
| 2026-05-05 21:09 | 50.21484 | 8.08070 | 13347 ft | 220 kts | 83° |
| 2026-05-05 21:09 | 50.21717 | 8.10672 | 13089 ft | 267 kts | 83° |
| 2026-05-05 21:09 | 50.22039 | 8.13697 | 12215 ft | 300 kts | 76° |
| 2026-05-05 21:10 | 50.22597 | 8.16827 | 12293 ft | 291 kts | 74° |
| 2026-05-05 21:10 | 50.23157 | 8.19983 | 12228 ft | 315 kts | 73° |
| 2026-05-05 21:10 | 50.23832 | 8.23301 | 11872 ft | 312 kts | 73° |
| 2026-05-05 21:10 | 50.24508 | 8.26553 | 11250 ft | 320 kts | 70° |
| 2026-05-05 21:11 | 50.25304 | 8.29782 | 10924 ft | 313 kts | 68° |
| 2026-05-05 21:11 | 50.25984 | 8.32916 | 10682 ft | 306 kts | 81° |
| 2026-05-05 21:11 | 50.26063 | 8.36261 | 10366 ft | 306 kts | 93° |
| 2026-05-05 21:11 | 50.25976 | 8.39568 | 9929 ft | 309 kts | 94° |
| 2026-05-05 21:12 | 50.25892 | 8.42917 | 9471 ft | 308 kts | 94° |
| 2026-05-05 21:12 | 50.25804 | 8.46256 | 8947 ft | 305 kts | 94° |
| 2026-05-05 21:12 | 50.25723 | 8.49549 | 8409 ft | 301 kts | 93° |
| 2026-05-05 21:12 | 50.25641 | 8.52802 | 7924 ft | 297 kts | 94° |
| 2026-05-05 21:13 | 50.25563 | 8.56006 | 7446 ft | 292 kts | 93° |
| 2026-05-05 21:13 | 50.25485 | 8.59127 | 6986 ft | 289 kts | 94° |
| 2026-05-05 21:13 | 50.25410 | 8.62248 | 6543 ft | 285 kts | 94° |
| 2026-05-05 21:13 | 50.25333 | 8.65352 | 6103 ft | 285 kts | 94° |
| 2026-05-05 21:14 | 50.25282 | 8.67384 | 6061 ft | 275 kts | 94° |
| 2026-05-05 21:14 | 50.25203 | 8.71301 | 5920 ft | 270 kts | 91° |
| 2026-05-05 21:14 | 50.25211 | 8.74220 | 6058 ft | 271 kts | 91° |
| 2026-05-05 21:14 | 50.25254 | 8.76187 | 6125 ft | 270 kts | 87° |
| 2026-05-05 21:15 | 50.25341 | 8.79140 | 6370 ft | 282 kts | 89° |
| 2026-05-05 21:15 | 50.25453 | 8.82199 | 6240 ft | 273 kts | 85° |
| 2026-05-05 21:15 | 50.25709 | 8.84995 | 6347 ft | 258 kts | 81° |
| 2026-05-05 21:15 | 50.25896 | 8.87758 | 6223 ft | 253 kts | 86° |
| 2026-05-05 21:16 | 50.26035 | 8.90483 | 6292 ft | 248 kts | 87° |
| 2026-05-05 21:16 | 50.26046 | 8.93223 | 6268 ft | 255 kts | 94° |
| 2026-05-05 21:16 | 50.25910 | 8.96003 | 6006 ft | 254 kts | 96° |
| 2026-05-05 21:16 | 50.25790 | 8.98698 | 5979 ft | 251 kts | 94° |
| 2026-05-05 21:17 | 50.25726 | 9.01466 | 5724 ft | 251 kts | 92° |
| 2026-05-05 21:17 | 50.25688 | 9.04156 | 5938 ft | 254 kts | 93° |
| 2026-05-05 21:17 | 50.25634 | 9.06934 | 5799 ft | 249 kts | 98° |
| 2026-05-05 21:17 | 50.24888 | 9.09230 | 6059 ft | 237 kts | 142° |
| 2026-05-05 21:18 | 50.23394 | 9.10091 | 5333 ft | 236 kts | 184° |
| 2026-05-05 21:18 | 50.21841 | 9.10070 | 5266 ft | 214 kts | 169° |
| 2026-05-05 21:18 | 50.20517 | 9.10718 | 5486 ft | 190 kts | 169° |
| 2026-05-05 21:18 | 50.19193 | 9.10778 | 5395 ft | 193 kts | 197° |
| 2026-05-05 21:19 | 50.18098 | 9.09766 | 5417 ft | 180 kts | 224° |
| 2026-05-05 21:19 | 50.17093 | 9.08583 | 5499 ft | 185 kts | 213° |
| 2026-05-05 21:19 | 50.15914 | 9.07667 | 5309 ft | 192 kts | 208° |
| 2026-05-05 21:19 | 50.14783 | 9.06499 | 4792 ft | 195 kts | 225° |
| 2026-05-05 21:20 | 50.14055 | 9.05005 | 5037 ft | 156 kts | 239° |